sensor_id;sensor_type;location;lat;lon;timestamp;temperature;humidity
10802;DHT22;5453;50.852;7.102;2024-03-22T00:02:20;11.60;99.90
10802;DHT22;5453;50.852;7.102;2024-03-22T00:04:50;11.70;99.90
10802;DHT22;5453;50.852;7.102;2024-03-22T00:07:22;11.60;99.90
10802;DHT22;5453;50.852;7.102;2024-03-22T00:09:52;11.60;99.90
10802;DHT22;5453;50.852;7.102;2024-03-22T00:12:23;11.60;99.90
10802;DHT22;5453;50.852;7.102;2024-03-22T00:14:54;11.60;99.90
10802;DHT22;5453;50.852;7.102;2024-03-22T00:17:25;11.60;99.90
10802;DHT22;5453;50.852;7.102;2024-03-22T00:19:56;11.60;99.90
10802;DHT22;5453;50.852;7.102;2024-03-22T00:22:27;11.60;99.90
10802;DHT22;5453;50.852;7.102;2024-03-22T00:24:58;11.70;99.90
10802;DHT22;5453;50.852;7.102;2024-03-22T00:27:28;11.60;99.90
10802;DHT22;5453;50.852;7.102;2024-03-22T00:29:59;11.60;99.90
10802;DHT22;5453;50.852;7.102;2024-03-22T00:32:30;11.60;99.90
10802;DHT22;5453;50.852;7.102;2024-03-22T00:35:01;11.60;99.90
10802;DHT22;5453;50.852;7.102;2024-03-22T00:37:32;11.70;99.90
10802;DHT22;5453;50.852;7.102;2024-03-22T00:40:03;11.70;99.90
10802;DHT22;5453;50.852;7.102;2024-03-22T00:42:34;11.60;99.90
10802;DHT22;5453;50.852;7.102;2024-03-22T00:45:05;11.60;99.90
10802;DHT22;5453;50.852;7.102;2024-03-22T00:47:36;11.60;99.90
10802;DHT22;5453;50.852;7.102;2024-03-22T00:50:07;11.70;99.90
10802;DHT22;5453;50.852;7.102;2024-03-22T00:52:39;11.60;99.90
10802;DHT22;5453;50.852;7.102;2024-03-22T00:55:09;11.70;99.90
10802;DHT22;5453;50.852;7.102;2024-03-22T00:57:40;11.60;99.90
10802;DHT22;5453;50.852;7.102;2024-03-22T01:00:11;11.60;99.90
10802;DHT22;5453;50.852;7.102;2024-03-22T01:02:43;11.60;99.90
10802;DHT22;5453;50.852;7.102;2024-03-22T01:05:14;11.60;99.90
10802;DHT22;5453;50.852;7.102;2024-03-22T01:07:45;11.60;99.90
10802;DHT22;5453;50.852;7.102;2024-03-22T01:10:16;11.60;99.90
10802;DHT22;5453;50.852;7.102;2024-03-22T01:12:49;11.60;99.90
10802;DHT22;5453;50.852;7.102;2024-03-22T01:15:20;11.50;99.90
10802;DHT22;5453;50.852;7.102;2024-03-22T01:17:50;11.50;99.90
10802;DHT22;5453;50.852;7.102;2024-03-22T01:20:23;11.50;99.90
10802;DHT22;5453;50.852;7.102;2024-03-22T01:22:54;11.50;99.90
10802;DHT22;5453;50.852;7.102;2024-03-22T01:25:25;11.50;99.90
10802;DHT22;5453;50.852;7.102;2024-03-22T01:27:56;11.50;99.90
10802;DHT22;5453;50.852;7.102;2024-03-22T01:30:27;11.50;99.90
10802;DHT22;5453;50.852;7.102;2024-03-22T01:32:59;11.50;99.90
10802;DHT22;5453;50.852;7.102;2024-03-22T01:35:30;11.50;99.90
10802;DHT22;5453;50.852;7.102;2024-03-22T01:38:01;11.40;99.90
10802;DHT22;5453;50.852;7.102;2024-03-22T01:40:32;11.50;99.90
10802;DHT22;5453;50.852;7.102;2024-03-22T01:43:03;11.50;99.90
10802;DHT22;5453;50.852;7.102;2024-03-22T01:45:34;11.50;99.90
10802;DHT22;5453;50.852;7.102;2024-03-22T01:48:07;11.50;99.90
10802;DHT22;5453;50.852;7.102;2024-03-22T01:50:38;11.50;99.90
10802;DHT22;5453;50.852;7.102;2024-03-22T01:53:09;11.50;99.90
10802;DHT22;5453;50.852;7.102;2024-03-22T01:55:40;11.50;99.90
10802;DHT22;5453;50.852;7.102;2024-03-22T01:58:11;11.50;99.90
10802;DHT22;5453;50.852;7.102;2024-03-22T02:00:43;11.50;99.90
10802;DHT22;5453;50.852;7.102;2024-03-22T02:03:13;11.50;99.90
10802;DHT22;5453;50.852;7.102;2024-03-22T02:05:44;11.50;99.90
10802;DHT22;5453;50.852;7.102;2024-03-22T02:08:15;11.50;99.90
10802;DHT22;5453;50.852;7.102;2024-03-22T02:10:46;11.50;99.90
10802;DHT22;5453;50.852;7.102;2024-03-22T02:13:17;11.40;99.90
10802;DHT22;5453;50.852;7.102;2024-03-22T02:15:48;11.50;99.90
10802;DHT22;5453;50.852;7.102;2024-03-22T02:18:19;11.40;99.90
10802;DHT22;5453;50.852;7.102;2024-03-22T02:20:50;11.50;99.90
10802;DHT22;5453;50.852;7.102;2024-03-22T02:26:06;11.50;99.90
10802;DHT22;5453;50.852;7.102;2024-03-22T02:28:38;11.50;99.90
10802;DHT22;5453;50.852;7.102;2024-03-22T02:31:09;11.50;99.90
10802;DHT22;5453;50.852;7.102;2024-03-22T02:33:40;11.50;99.90
10802;DHT22;5453;50.852;7.102;2024-03-22T02:36:11;11.50;99.90
10802;DHT22;5453;50.852;7.102;2024-03-22T02:38:41;11.60;99.90
10802;DHT22;5453;50.852;7.102;2024-03-22T02:41:12;11.50;99.90
10802;DHT22;5453;50.852;7.102;2024-03-22T02:43:43;11.50;99.90
10802;DHT22;5453;50.852;7.102;2024-03-22T02:46:14;11.50;99.90
10802;DHT22;5453;50.852;7.102;2024-03-22T02:48:45;11.60;99.90
10802;DHT22;5453;50.852;7.102;2024-03-22T02:51:16;11.60;99.90
10802;DHT22;5453;50.852;7.102;2024-03-22T02:53:48;11.50;99.90
10802;DHT22;5453;50.852;7.102;2024-03-22T02:56:18;11.50;99.90
10802;DHT22;5453;50.852;7.102;2024-03-22T02:58:49;11.60;99.90
10802;DHT22;5453;50.852;7.102;2024-03-22T03:01:20;11.60;99.90
10802;DHT22;5453;50.852;7.102;2024-03-22T03:03:51;11.60;99.90
10802;DHT22;5453;50.852;7.102;2024-03-22T03:06:22;11.60;99.90
10802;DHT22;5453;50.852;7.102;2024-03-22T03:08:53;11.60;99.90
10802;DHT22;5453;50.852;7.102;2024-03-22T03:11:24;11.60;99.90
10802;DHT22;5453;50.852;7.102;2024-03-22T03:13:54;11.60;99.90
10802;DHT22;5453;50.852;7.102;2024-03-22T03:16:25;11.60;99.90
10802;DHT22;5453;50.852;7.102;2024-03-22T03:18:56;11.60;99.90
10802;DHT22;5453;50.852;7.102;2024-03-22T03:21:27;11.70;99.90
10802;DHT22;5453;50.852;7.102;2024-03-22T03:23:58;11.60;99.90
10802;DHT22;5453;50.852;7.102;2024-03-22T03:26:29;11.60;99.90
10802;DHT22;5453;50.852;7.102;2024-03-22T03:28:59;11.60;99.90
10802;DHT22;5453;50.852;7.102;2024-03-22T03:31:30;11.70;99.90
10802;DHT22;5453;50.852;7.102;2024-03-22T03:34:01;11.70;99.90
10802;DHT22;5453;50.852;7.102;2024-03-22T03:36:32;11.70;99.90
10802;DHT22;5453;50.852;7.102;2024-03-22T03:39:03;11.70;99.90
10802;DHT22;5453;50.852;7.102;2024-03-22T03:41:37;11.70;99.90
10802;DHT22;5453;50.852;7.102;2024-03-22T03:44:07;11.60;99.90
10802;DHT22;5453;50.852;7.102;2024-03-22T03:46:38;11.60;99.90
10802;DHT22;5453;50.852;7.102;2024-03-22T03:49:09;11.60;99.90
10802;DHT22;5453;50.852;7.102;2024-03-22T03:51:40;11.70;99.90
10802;DHT22;5453;50.852;7.102;2024-03-22T03:54:11;11.70;99.90
10802;DHT22;5453;50.852;7.102;2024-03-22T03:56:42;11.70;99.90
10802;DHT22;5453;50.852;7.102;2024-03-22T03:59:13;11.70;99.90
10802;DHT22;5453;50.852;7.102;2024-03-22T04:01:44;11.70;99.90
10802;DHT22;5453;50.852;7.102;2024-03-22T04:04:15;11.70;99.90
10802;DHT22;5453;50.852;7.102;2024-03-22T04:06:45;11.70;99.90
10802;DHT22;5453;50.852;7.102;2024-03-22T04:09:16;11.70;99.90
10802;DHT22;5453;50.852;7.102;2024-03-22T04:11:47;11.70;99.90
10802;DHT22;5453;50.852;7.102;2024-03-22T04:14:18;11.70;99.90
10802;DHT22;5453;50.852;7.102;2024-03-22T04:16:49;11.70;99.90
10802;DHT22;5453;50.852;7.102;2024-03-22T04:19:20;11.60;99.90
10802;DHT22;5453;50.852;7.102;2024-03-22T04:21:51;11.70;99.90
10802;DHT22;5453;50.852;7.102;2024-03-22T04:24:22;11.70;99.90
10802;DHT22;5453;50.852;7.102;2024-03-22T04:26:53;11.60;99.90
10802;DHT22;5453;50.852;7.102;2024-03-22T04:29:24;11.70;99.90
10802;DHT22;5453;50.852;7.102;2024-03-22T04:31:55;11.60;99.90
10802;DHT22;5453;50.852;7.102;2024-03-22T04:34:26;11.70;99.90
10802;DHT22;5453;50.852;7.102;2024-03-22T04:36:57;11.60;99.90
10802;DHT22;5453;50.852;7.102;2024-03-22T04:39:28;11.70;99.90
10802;DHT22;5453;50.852;7.102;2024-03-22T04:41:58;11.60;99.90
10802;DHT22;5453;50.852;7.102;2024-03-22T04:44:29;11.60;99.90
10802;DHT22;5453;50.852;7.102;2024-03-22T04:47:00;11.60;99.90
10802;DHT22;5453;50.852;7.102;2024-03-22T04:49:31;11.60;99.90
10802;DHT22;5453;50.852;7.102;2024-03-22T04:52:02;11.60;99.90
10802;DHT22;5453;50.852;7.102;2024-03-22T04:54:33;11.60;99.90
10802;DHT22;5453;50.852;7.102;2024-03-22T04:57:04;11.60;99.90
10802;DHT22;5453;50.852;7.102;2024-03-22T04:59:34;11.60;99.90
10802;DHT22;5453;50.852;7.102;2024-03-22T05:02:05;11.60;99.90
10802;DHT22;5453;50.852;7.102;2024-03-22T05:04:36;11.60;99.90
10802;DHT22;5453;50.852;7.102;2024-03-22T05:07:07;11.50;99.90
10802;DHT22;5453;50.852;7.102;2024-03-22T05:09:38;11.50;99.90
10802;DHT22;5453;50.852;7.102;2024-03-22T05:12:09;11.50;99.90
10802;DHT22;5453;50.852;7.102;2024-03-22T05:14:40;11.50;99.90
10802;DHT22;5453;50.852;7.102;2024-03-22T05:17:11;11.40;99.90
10802;DHT22;5453;50.852;7.102;2024-03-22T05:19:42;11.40;99.90
10802;DHT22;5453;50.852;7.102;2024-03-22T05:22:13;11.40;99.90
10802;DHT22;5453;50.852;7.102;2024-03-22T05:24:44;11.50;99.90
10802;DHT22;5453;50.852;7.102;2024-03-22T05:27:14;11.50;99.90
10802;DHT22;5453;50.852;7.102;2024-03-22T05:29:45;11.50;99.90
10802;DHT22;5453;50.852;7.102;2024-03-22T05:32:16;11.40;99.90
10802;DHT22;5453;50.852;7.102;2024-03-22T05:34:47;11.50;99.90
10802;DHT22;5453;50.852;7.102;2024-03-22T05:37:18;11.50;99.90
10802;DHT22;5453;50.852;7.102;2024-03-22T05:39:49;11.40;99.90
10802;DHT22;5453;50.852;7.102;2024-03-22T05:42:20;11.50;99.90
10802;DHT22;5453;50.852;7.102;2024-03-22T05:44:51;11.50;99.90
10802;DHT22;5453;50.852;7.102;2024-03-22T05:47:23;11.50;99.90
10802;DHT22;5453;50.852;7.102;2024-03-22T05:49:53;11.50;99.90
10802;DHT22;5453;50.852;7.102;2024-03-22T05:52:24;11.50;99.90
10802;DHT22;5453;50.852;7.102;2024-03-22T05:54:55;11.50;99.90
10802;DHT22;5453;50.852;7.102;2024-03-22T05:57:26;11.50;99.90
10802;DHT22;5453;50.852;7.102;2024-03-22T05:59:57;11.60;99.90
10802;DHT22;5453;50.852;7.102;2024-03-22T06:02:28;11.60;99.90
10802;DHT22;5453;50.852;7.102;2024-03-22T06:04:59;11.60;99.90
10802;DHT22;5453;50.852;7.102;2024-03-22T06:07:29;11.60;99.90
10802;DHT22;5453;50.852;7.102;2024-03-22T06:10:06;11.60;99.90
10802;DHT22;5453;50.852;7.102;2024-03-22T06:12:38;11.70;99.90
10802;DHT22;5453;50.852;7.102;2024-03-22T06:15:09;11.70;99.90
10802;DHT22;5453;50.852;7.102;2024-03-22T06:17:40;11.70;99.90
10802;DHT22;5453;50.852;7.102;2024-03-22T06:20:12;11.70;99.90
10802;DHT22;5453;50.852;7.102;2024-03-22T06:22:43;11.70;99.90
10802;DHT22;5453;50.852;7.102;2024-03-22T06:25:14;11.80;99.90
10802;DHT22;5453;50.852;7.102;2024-03-22T06:27:45;11.80;99.90
10802;DHT22;5453;50.852;7.102;2024-03-22T06:30:16;11.80;99.90
10802;DHT22;5453;50.852;7.102;2024-03-22T06:32:47;11.90;99.90
10802;DHT22;5453;50.852;7.102;2024-03-22T06:35:18;11.90;99.90
10802;DHT22;5453;50.852;7.102;2024-03-22T06:37:49;11.90;99.90
10802;DHT22;5453;50.852;7.102;2024-03-22T06:40:20;11.90;99.90
10802;DHT22;5453;50.852;7.102;2024-03-22T06:42:51;12.00;99.90
10802;DHT22;5453;50.852;7.102;2024-03-22T06:45:21;12.00;99.90
10802;DHT22;5453;50.852;7.102;2024-03-22T06:47:52;12.00;99.90
10802;DHT22;5453;50.852;7.102;2024-03-22T06:50:23;12.10;99.90
10802;DHT22;5453;50.852;7.102;2024-03-22T06:52:57;12.10;99.90
10802;DHT22;5453;50.852;7.102;2024-03-22T06:55:27;12.10;99.90
10802;DHT22;5453;50.852;7.102;2024-03-22T06:57:58;12.20;99.90
10802;DHT22;5453;50.852;7.102;2024-03-22T07:00:29;12.20;99.90
10802;DHT22;5453;50.852;7.102;2024-03-22T07:03:02;12.20;99.90
10802;DHT22;5453;50.852;7.102;2024-03-22T07:05:33;12.20;99.90
10802;DHT22;5453;50.852;7.102;2024-03-22T07:08:04;12.20;99.90
10802;DHT22;5453;50.852;7.102;2024-03-22T07:10:39;12.30;99.90
10802;DHT22;5453;50.852;7.102;2024-03-22T07:13:10;12.40;99.90
10802;DHT22;5453;50.852;7.102;2024-03-22T07:15:41;12.40;99.90
10802;DHT22;5453;50.852;7.102;2024-03-22T07:18:11;12.50;99.90
10802;DHT22;5453;50.852;7.102;2024-03-22T07:20:42;12.70;99.90
10802;DHT22;5453;50.852;7.102;2024-03-22T07:23:13;13.00;99.90
10802;DHT22;5453;50.852;7.102;2024-03-22T07:25:44;13.40;99.90
10802;DHT22;5453;50.852;7.102;2024-03-22T07:28:18;13.80;99.90
10802;DHT22;5453;50.852;7.102;2024-03-22T07:30:49;14.40;99.90
10802;DHT22;5453;50.852;7.102;2024-03-22T07:33:20;14.80;99.90
10802;DHT22;5453;50.852;7.102;2024-03-22T07:35:51;15.30;99.90
10802;DHT22;5453;50.852;7.102;2024-03-22T07:38:24;15.90;99.90
10802;DHT22;5453;50.852;7.102;2024-03-22T07:40:55;16.40;99.90
10802;DHT22;5453;50.852;7.102;2024-03-22T07:43:26;16.90;99.90
10802;DHT22;5453;50.852;7.102;2024-03-22T07:45:57;17.10;99.90
10802;DHT22;5453;50.852;7.102;2024-03-22T07:48:28;17.00;99.90
10802;DHT22;5453;50.852;7.102;2024-03-22T07:51:00;16.90;99.90
10802;DHT22;5453;50.852;7.102;2024-03-22T07:53:31;16.70;99.90
10802;DHT22;5453;50.852;7.102;2024-03-22T07:56:02;16.50;99.90
10802;DHT22;5453;50.852;7.102;2024-03-22T07:58:33;16.30;99.90
10802;DHT22;5453;50.852;7.102;2024-03-22T08:01:04;16.20;99.90
10802;DHT22;5453;50.852;7.102;2024-03-22T08:03:35;16.30;99.90
10802;DHT22;5453;50.852;7.102;2024-03-22T08:06:06;16.40;99.90
10802;DHT22;5453;50.852;7.102;2024-03-22T08:08:37;16.50;99.90
10802;DHT22;5453;50.852;7.102;2024-03-22T08:11:07;16.80;99.90
10802;DHT22;5453;50.852;7.102;2024-03-22T08:13:39;17.20;99.90
10802;DHT22;5453;50.852;7.102;2024-03-22T08:16:10;17.70;99.90
10802;DHT22;5453;50.852;7.102;2024-03-22T08:18:41;18.00;99.90
10802;DHT22;5453;50.852;7.102;2024-03-22T08:21:12;18.20;99.90
10802;DHT22;5453;50.852;7.102;2024-03-22T08:23:43;18.50;99.90
10802;DHT22;5453;50.852;7.102;2024-03-22T08:26:14;18.60;99.80
10802;DHT22;5453;50.852;7.102;2024-03-22T08:28:46;18.50;99.70
10802;DHT22;5453;50.852;7.102;2024-03-22T08:31:17;18.30;99.70
10802;DHT22;5453;50.852;7.102;2024-03-22T08:33:48;17.90;99.80
10802;DHT22;5453;50.852;7.102;2024-03-22T08:36:19;17.60;99.90
10802;DHT22;5453;50.852;7.102;2024-03-22T08:38:50;17.40;99.90
10802;DHT22;5453;50.852;7.102;2024-03-22T08:41:21;17.20;99.90
10802;DHT22;5453;50.852;7.102;2024-03-22T08:43:52;17.10;99.90
10802;DHT22;5453;50.852;7.102;2024-03-22T08:46:23;17.10;99.90
10802;DHT22;5453;50.852;7.102;2024-03-22T08:48:57;17.20;99.90
10802;DHT22;5453;50.852;7.102;2024-03-22T08:51:27;17.30;99.90
10802;DHT22;5453;50.852;7.102;2024-03-22T08:53:58;17.30;99.90
10802;DHT22;5453;50.852;7.102;2024-03-22T08:56:29;17.30;99.90
10802;DHT22;5453;50.852;7.102;2024-03-22T08:59:00;17.30;99.90
10802;DHT22;5453;50.852;7.102;2024-03-22T09:01:31;17.20;99.90
10802;DHT22;5453;50.852;7.102;2024-03-22T09:04:03;17.10;99.90
10802;DHT22;5453;50.852;7.102;2024-03-22T09:06:34;17.00;99.90
10802;DHT22;5453;50.852;7.102;2024-03-22T09:09:05;16.90;99.90
10802;DHT22;5453;50.852;7.102;2024-03-22T09:11:37;16.80;99.90
10802;DHT22;5453;50.852;7.102;2024-03-22T09:14:08;16.70;99.90
10802;DHT22;5453;50.852;7.102;2024-03-22T09:16:38;16.60;99.90
10802;DHT22;5453;50.852;7.102;2024-03-22T09:19:09;16.60;99.90
10802;DHT22;5453;50.852;7.102;2024-03-22T09:21:42;16.50;99.90
10802;DHT22;5453;50.852;7.102;2024-03-22T09:24:13;16.50;99.90
10802;DHT22;5453;50.852;7.102;2024-03-22T09:26:44;16.50;99.90
10802;DHT22;5453;50.852;7.102;2024-03-22T09:29:15;16.50;99.90
10802;DHT22;5453;50.852;7.102;2024-03-22T09:31:46;16.60;99.90
10802;DHT22;5453;50.852;7.102;2024-03-22T09:34:17;16.60;99.90
10802;DHT22;5453;50.852;7.102;2024-03-22T09:36:47;16.70;99.90
10802;DHT22;5453;50.852;7.102;2024-03-22T09:39:18;16.80;99.90
10802;DHT22;5453;50.852;7.102;2024-03-22T09:41:51;16.90;99.90
10802;DHT22;5453;50.852;7.102;2024-03-22T09:44:23;16.90;99.90
10802;DHT22;5453;50.852;7.102;2024-03-22T09:46:55;17.00;99.90
10802;DHT22;5453;50.852;7.102;2024-03-22T09:49:27;17.10;99.90
10802;DHT22;5453;50.852;7.102;2024-03-22T09:51:58;17.20;99.90
10802;DHT22;5453;50.852;7.102;2024-03-22T09:54:29;17.20;99.90
10802;DHT22;5453;50.852;7.102;2024-03-22T09:57:01;17.30;99.90
10802;DHT22;5453;50.852;7.102;2024-03-22T09:59:32;17.40;99.90
10802;DHT22;5453;50.852;7.102;2024-03-22T10:02:03;17.40;99.90
10802;DHT22;5453;50.852;7.102;2024-03-22T10:04:34;17.50;99.90
10802;DHT22;5453;50.852;7.102;2024-03-22T10:07:06;17.50;99.90
10802;DHT22;5453;50.852;7.102;2024-03-22T10:09:38;17.60;99.90
10802;DHT22;5453;50.852;7.102;2024-03-22T10:12:09;17.70;99.90
10802;DHT22;5453;50.852;7.102;2024-03-22T10:14:43;17.70;99.90
10802;DHT22;5453;50.852;7.102;2024-03-22T10:17:14;17.80;99.90
10802;DHT22;5453;50.852;7.102;2024-03-22T10:19:47;17.80;99.90
10802;DHT22;5453;50.852;7.102;2024-03-22T10:22:19;17.80;99.90
10802;DHT22;5453;50.852;7.102;2024-03-22T10:24:50;17.90;99.90
10802;DHT22;5453;50.852;7.102;2024-03-22T10:27:21;17.90;99.90
10802;DHT22;5453;50.852;7.102;2024-03-22T10:29:52;17.90;99.90
10802;DHT22;5453;50.852;7.102;2024-03-22T10:32:24;17.90;99.90
10802;DHT22;5453;50.852;7.102;2024-03-22T10:34:55;17.90;99.90
10802;DHT22;5453;50.852;7.102;2024-03-22T10:37:26;17.90;99.90
10802;DHT22;5453;50.852;7.102;2024-03-22T10:39:58;17.90;99.90
10802;DHT22;5453;50.852;7.102;2024-03-22T10:42:35;17.90;99.90
10802;DHT22;5453;50.852;7.102;2024-03-22T10:45:08;17.80;99.90
10802;DHT22;5453;50.852;7.102;2024-03-22T10:47:40;17.80;99.90
10802;DHT22;5453;50.852;7.102;2024-03-22T10:50:11;17.60;99.90
10802;DHT22;5453;50.852;7.102;2024-03-22T10:52:48;17.50;99.90
10802;DHT22;5453;50.852;7.102;2024-03-22T10:55:26;17.40;99.90
10802;DHT22;5453;50.852;7.102;2024-03-22T10:58:01;17.30;99.90
10802;DHT22;5453;50.852;7.102;2024-03-22T11:00:34;17.30;99.90
10802;DHT22;5453;50.852;7.102;2024-03-22T11:03:07;17.40;99.90
10802;DHT22;5453;50.852;7.102;2024-03-22T11:05:57;17.40;99.90
10802;DHT22;5453;50.852;7.102;2024-03-22T11:08:29;17.50;99.90
10802;DHT22;5453;50.852;7.102;2024-03-22T11:11:10;17.60;99.90
10802;DHT22;5453;50.852;7.102;2024-03-22T11:13:41;17.70;99.90
10802;DHT22;5453;50.852;7.102;2024-03-22T11:16:12;17.80;99.90
10802;DHT22;5453;50.852;7.102;2024-03-22T11:18:44;17.80;99.90
10802;DHT22;5453;50.852;7.102;2024-03-22T11:21:15;17.80;99.70
10802;DHT22;5453;50.852;7.102;2024-03-22T11:23:46;17.70;99.60
10802;DHT22;5453;50.852;7.102;2024-03-22T11:26:17;17.70;99.80
10802;DHT22;5453;50.852;7.102;2024-03-22T11:28:49;17.60;99.30
10802;DHT22;5453;50.852;7.102;2024-03-22T11:31:20;17.60;99.80
10802;DHT22;5453;50.852;7.102;2024-03-22T11:33:57;17.70;99.90
10802;DHT22;5453;50.852;7.102;2024-03-22T11:36:29;17.70;99.50
10802;DHT22;5453;50.852;7.102;2024-03-22T11:39:00;17.60;99.20
10802;DHT22;5453;50.852;7.102;2024-03-22T11:41:31;17.60;99.40
10802;DHT22;5453;50.852;7.102;2024-03-22T11:44:02;17.60;99.70
10802;DHT22;5453;50.852;7.102;2024-03-22T11:46:33;17.70;99.70
10802;DHT22;5453;50.852;7.102;2024-03-22T11:49:08;17.90;99.70
10802;DHT22;5453;50.852;7.102;2024-03-22T11:51:39;18.00;99.80
10802;DHT22;5453;50.852;7.102;2024-03-22T11:54:10;18.10;99.20
10802;DHT22;5453;50.852;7.102;2024-03-22T11:56:40;18.10;98.90
10802;DHT22;5453;50.852;7.102;2024-03-22T11:59:11;18.10;98.90
10802;DHT22;5453;50.852;7.102;2024-03-22T12:01:42;18.00;98.70
10802;DHT22;5453;50.852;7.102;2024-03-22T12:04:13;18.00;99.10
10802;DHT22;5453;50.852;7.102;2024-03-22T12:06:45;17.90;98.80
10802;DHT22;5453;50.852;7.102;2024-03-22T12:09:17;17.90;98.90
10802;DHT22;5453;50.852;7.102;2024-03-22T12:11:47;17.90;99.10
10802;DHT22;5453;50.852;7.102;2024-03-22T12:14:18;17.80;99.10
10802;DHT22;5453;50.852;7.102;2024-03-22T12:16:49;17.80;98.80
10802;DHT22;5453;50.852;7.102;2024-03-22T12:19:21;17.70;98.90
10802;DHT22;5453;50.852;7.102;2024-03-22T12:21:52;17.60;99.30
10802;DHT22;5453;50.852;7.102;2024-03-22T12:24:23;17.60;99.50
10802;DHT22;5453;50.852;7.102;2024-03-22T12:26:54;17.60;99.40
10802;DHT22;5453;50.852;7.102;2024-03-22T12:29:25;17.60;99.30
10802;DHT22;5453;50.852;7.102;2024-03-22T12:31:56;17.60;99.60
10802;DHT22;5453;50.852;7.102;2024-03-22T12:34:27;17.60;99.40
10802;DHT22;5453;50.852;7.102;2024-03-22T12:37:00;17.50;99.30
10802;DHT22;5453;50.852;7.102;2024-03-22T12:39:31;17.40;98.80
10802;DHT22;5453;50.852;7.102;2024-03-22T12:42:03;17.30;98.60
10802;DHT22;5453;50.852;7.102;2024-03-22T12:44:33;17.10;98.70
10802;DHT22;5453;50.852;7.102;2024-03-22T12:47:04;17.00;98.90
10802;DHT22;5453;50.852;7.102;2024-03-22T12:49:35;17.10;99.90
10802;DHT22;5453;50.852;7.102;2024-03-22T12:52:07;17.30;99.90
10802;DHT22;5453;50.852;7.102;2024-03-22T12:54:37;17.60;99.90
10802;DHT22;5453;50.852;7.102;2024-03-22T12:57:08;17.70;99.20
10802;DHT22;5453;50.852;7.102;2024-03-22T12:59:40;17.80;98.80
10802;DHT22;5453;50.852;7.102;2024-03-22T13:02:11;17.80;98.90
10802;DHT22;5453;50.852;7.102;2024-03-22T13:04:42;17.80;98.90
10802;DHT22;5453;50.852;7.102;2024-03-22T13:07:14;17.80;98.60
10802;DHT22;5453;50.852;7.102;2024-03-22T13:09:45;17.80;98.80
10802;DHT22;5453;50.852;7.102;2024-03-22T13:12:16;17.80;98.60
10802;DHT22;5453;50.852;7.102;2024-03-22T13:14:48;17.80;98.40
10802;DHT22;5453;50.852;7.102;2024-03-22T13:17:19;17.90;98.50
10802;DHT22;5453;50.852;7.102;2024-03-22T13:19:50;17.90;98.30
10802;DHT22;5453;50.852;7.102;2024-03-22T13:22:21;18.00;98.10
10802;DHT22;5453;50.852;7.102;2024-03-22T13:24:52;18.00;98.00
10802;DHT22;5453;50.852;7.102;2024-03-22T13:27:23;18.10;97.80
10802;DHT22;5453;50.852;7.102;2024-03-22T13:29:56;18.30;97.60
10802;DHT22;5453;50.852;7.102;2024-03-22T13:32:27;18.50;97.30
10802;DHT22;5453;50.852;7.102;2024-03-22T13:34:58;18.70;97.00
10802;DHT22;5453;50.852;7.102;2024-03-22T13:37:29;18.80;96.50
10802;DHT22;5453;50.852;7.102;2024-03-22T13:40:00;18.90;96.30
10802;DHT22;5453;50.852;7.102;2024-03-22T13:42:31;18.90;95.90
10802;DHT22;5453;50.852;7.102;2024-03-22T13:45:02;18.90;95.50
10802;DHT22;5453;50.852;7.102;2024-03-22T13:47:33;19.00;95.50
10802;DHT22;5453;50.852;7.102;2024-03-22T13:50:07;19.00;95.40
10802;DHT22;5453;50.852;7.102;2024-03-22T13:52:41;19.00;95.10
10802;DHT22;5453;50.852;7.102;2024-03-22T13:55:11;19.00;94.90
10802;DHT22;5453;50.852;7.102;2024-03-22T13:57:42;19.00;94.90
10802;DHT22;5453;50.852;7.102;2024-03-22T14:00:13;19.00;94.90
10802;DHT22;5453;50.852;7.102;2024-03-22T14:02:45;19.00;94.60
10802;DHT22;5453;50.852;7.102;2024-03-22T14:05:16;19.00;94.30
10802;DHT22;5453;50.852;7.102;2024-03-22T14:07:46;19.10;94.40
10802;DHT22;5453;50.852;7.102;2024-03-22T14:10:17;19.10;94.20
10802;DHT22;5453;50.852;7.102;2024-03-22T14:12:49;19.00;94.30
10802;DHT22;5453;50.852;7.102;2024-03-22T14:15:20;18.90;94.00
10802;DHT22;5453;50.852;7.102;2024-03-22T14:17:51;18.80;94.40
10802;DHT22;5453;50.852;7.102;2024-03-22T14:20:22;18.80;94.70
10802;DHT22;5453;50.852;7.102;2024-03-22T14:22:53;18.70;94.70
10802;DHT22;5453;50.852;7.102;2024-03-22T14:25:24;18.70;94.70
10802;DHT22;5453;50.852;7.102;2024-03-22T14:27:55;18.70;94.80
10802;DHT22;5453;50.852;7.102;2024-03-22T14:30:26;18.70;94.20
10802;DHT22;5453;50.852;7.102;2024-03-22T14:32:57;18.50;94.10
10802;DHT22;5453;50.852;7.102;2024-03-22T14:35:28;18.40;93.80
10802;DHT22;5453;50.852;7.102;2024-03-22T14:37:59;18.30;94.00
10802;DHT22;5453;50.852;7.102;2024-03-22T14:40:30;18.20;94.00
10802;DHT22;5453;50.852;7.102;2024-03-22T14:43:07;18.10;93.80
10802;DHT22;5453;50.852;7.102;2024-03-22T14:45:38;18.10;94.20
10802;DHT22;5453;50.852;7.102;2024-03-22T14:48:09;18.10;94.00
10802;DHT22;5453;50.852;7.102;2024-03-22T14:50:40;18.00;93.90
10802;DHT22;5453;50.852;7.102;2024-03-22T14:53:11;18.10;93.90
10802;DHT22;5453;50.852;7.102;2024-03-22T14:55:58;18.10;94.10
10802;DHT22;5453;50.852;7.102;2024-03-22T14:58:37;18.10;93.50
10802;DHT22;5453;50.852;7.102;2024-03-22T15:01:08;18.10;93.20
10802;DHT22;5453;50.852;7.102;2024-03-22T15:03:39;18.10;93.40
10802;DHT22;5453;50.852;7.102;2024-03-22T15:06:10;18.20;93.50
10802;DHT22;5453;50.852;7.102;2024-03-22T15:08:41;18.10;93.20
10802;DHT22;5453;50.852;7.102;2024-03-22T15:11:12;18.20;93.40
10802;DHT22;5453;50.852;7.102;2024-03-22T15:13:43;18.10;93.40
10802;DHT22;5453;50.852;7.102;2024-03-22T15:16:14;18.10;93.30
10802;DHT22;5453;50.852;7.102;2024-03-22T15:18:45;18.00;93.20
10802;DHT22;5453;50.852;7.102;2024-03-22T15:21:16;17.90;93.30
10802;DHT22;5453;50.852;7.102;2024-03-22T15:23:47;17.80;93.30
10802;DHT22;5453;50.852;7.102;2024-03-22T15:26:17;17.70;93.60
10802;DHT22;5453;50.852;7.102;2024-03-22T15:28:51;17.60;93.50
10802;DHT22;5453;50.852;7.102;2024-03-22T15:31:22;17.60;94.40
10802;DHT22;5453;50.852;7.102;2024-03-22T15:33:53;17.60;94.70
10802;DHT22;5453;50.852;7.102;2024-03-22T15:36:24;17.70;94.70
10802;DHT22;5453;50.852;7.102;2024-03-22T15:38:55;17.70;94.70
10802;DHT22;5453;50.852;7.102;2024-03-22T15:41:26;17.80;94.90
10802;DHT22;5453;50.852;7.102;2024-03-22T15:43:57;17.80;94.80
10802;DHT22;5453;50.852;7.102;2024-03-22T15:46:29;17.80;95.10
10802;DHT22;5453;50.852;7.102;2024-03-22T15:49:00;17.90;94.60
10802;DHT22;5453;50.852;7.102;2024-03-22T15:51:31;17.90;94.70
10802;DHT22;5453;50.852;7.102;2024-03-22T15:54:02;17.80;94.70
10802;DHT22;5453;50.852;7.102;2024-03-22T15:56:34;17.90;94.90
10802;DHT22;5453;50.852;7.102;2024-03-22T15:59:05;17.90;95.10
10802;DHT22;5453;50.852;7.102;2024-03-22T16:01:36;17.90;95.40
10802;DHT22;5453;50.852;7.102;2024-03-22T16:04:07;18.00;95.80
10802;DHT22;5453;50.852;7.102;2024-03-22T16:06:37;18.00;96.00
10802;DHT22;5453;50.852;7.102;2024-03-22T16:09:10;18.00;96.10
10802;DHT22;5453;50.852;7.102;2024-03-22T16:11:41;18.00;96.30
10802;DHT22;5453;50.852;7.102;2024-03-22T16:14:13;18.00;96.60